Time;durP1;ratioP1;P1;durP2;ratioP2;P2;SDS_P1;SDS_P2;PMS_P1;PMS_P2;Temp;Humidity;BMP_temperature;BMP_pressure;BME280_temperature;BME280_humidity;BME280_pressure;Samples;Min_cycle;Max_cycle;Signal;HPM_P1;HPM_P2
2022/04/17 00:00:00;;;;;;;3.42;0.95;;;;;;;16.29;27.55;99721.38;5135621;27;20050;-68
2022/04/17 00:02:27;;;;;;;3.05;1.17;;;;;;;16.30;27.08;99714.19;5135179;27;20023;-69
2022/04/17 00:04:52;;;;;;;1.98;0.90;;;;;;;16.30;27.30;99719.53;5135304;27;20058;-68
2022/04/17 00:07:18;;;;;;;1.92;0.75;;;;;;;16.27;27.15;99727.84;5135178;27;20081;-69
2022/04/17 00:09:44;;;;;;;1.67;1.00;;;;;;;16.26;27.24;99735.03;5135784;27;20039;-69
2022/04/17 00:12:10;;;;;;;1.45;0.75;;;;;;;16.28;27.28;99740.19;5135539;27;20031;-67
2022/04/17 00:14:36;;;;;;;1.27;0.85;;;;;;;16.28;26.94;99742.88;5135464;27;20482;-68
2022/04/17 00:17:02;;;;;;;2.45;0.80;;;;;;;16.26;27.59;99742.19;5135089;27;20039;-69
2022/04/17 00:19:27;;;;;;;1.38;0.65;;;;;;;16.20;27.25;99738.28;5135361;27;20046;-69
2022/04/17 00:21:53;;;;;;;1.58;0.95;;;;;;;16.16;27.12;99740.44;5135301;27;20031;-70
2022/04/17 00:24:18;;;;;;;2.67;0.93;;;;;;;16.14;27.11;99745.09;5135135;27;20038;-68
2022/04/17 00:26:44;;;;;;;1.58;0.80;;;;;;;16.12;27.50;99747.06;5135128;27;20440;-68
2022/04/17 00:29:09;;;;;;;2.60;0.90;;;;;;;16.10;27.67;99746.38;5135074;27;20482;-68
2022/04/17 00:31:35;;;;;;;1.23;0.80;;;;;;;16.05;27.03;99750.50;5135394;27;20038;-67
2022/04/17 00:34:00;;;;;;;4.40;0.80;;;;;;;16.02;27.57;99740.97;5134634;27;20486;-69
2022/04/17 00:36:26;;;;;;;1.80;0.80;;;;;;;16.02;27.58;99751.63;5135015;27;20103;-68
2022/04/17 00:38:51;;;;;;;1.05;0.70;;;;;;;15.99;27.48;99743.94;5140525;27;20478;-67
2022/04/17 00:41:17;;;;;;;2.15;0.60;;;;;;;16.01;26.83;99755.28;5134642;27;20046;-69
2022/04/17 00:43:48;;;;;;;1.65;0.80;;;;;;;16.07;26.76;99752.03;5134248;27;20027;-68
2022/04/17 00:46:14;;;;;;;0.82;0.50;;;;;;;16.07;27.24;99754.69;5134382;27;20038;-69
2022/04/17 00:48:40;;;;;;;0.95;0.70;;;;;;;16.08;27.16;99753.72;5134795;27;20043;-68
2022/04/17 00:51:06;;;;;;;1.20;0.60;;;;;;;16.10;27.04;99743.69;5134829;27;20042;-69
2022/04/17 00:53:34;;;;;;;1.23;0.80;;;;;;;16.08;26.81;99751.03;5134140;27;20057;-69
2022/04/17 00:56:00;;;;;;;2.83;0.80;;;;;;;16.08;27.08;99751.03;5118137;27;20035;-69
2022/04/17 00:58:29;;;;;;;1.25;0.60;;;;;;;16.05;27.25;99754.00;5122352;27;20125;-70
2022/04/17 01:00:55;;;;;;;1.67;0.90;;;;;;;15.99;27.17;99747.44;5134828;27;20088;-66
2022/04/17 01:03:20;;;;;;;1.70;0.70;;;;;;;15.98;27.21;99752.91;5133891;27;20035;-68
2022/04/17 01:05:46;;;;;;;1.63;0.80;;;;;;;15.97;26.95;99741.41;5134457;27;20046;-69
2022/04/17 01:08:13;;;;;;;2.45;0.57;;;;;;;15.97;26.78;99744.09;5133839;27;20031;-68
2022/04/17 01:10:40;;;;;;;1.05;0.80;;;;;;;15.99;27.12;99750.13;5134404;27;20043;-70
2022/04/17 01:13:09;;;;;;;1.15;0.63;;;;;;;15.98;26.84;99745.78;5133447;27;20049;-68
2022/04/17 01:15:38;;;;;;;1.70;0.73;;;;;;;15.97;26.80;99743.22;5134364;27;20027;-70
2022/04/17 01:18:04;;;;;;;1.08;0.52;;;;;;;15.96;26.91;99747.75;5133787;27;20035;-69
2022/04/17 01:20:30;;;;;;;0.82;0.60;;;;;;;15.95;26.83;99739.91;5134195;27;20122;-69
2022/04/17 01:28:26;;;;;;;1.13;0.60;;;;;;;15.92;27.29;99757.03;5144565;27;20465;-68
2022/04/17 01:30:55;;;;;;;1.33;0.50;;;;;;;15.90;27.06;99759.00;5154318;27;20030;-69
2022/04/17 01:33:21;;;;;;;1.08;0.60;;;;;;;15.92;27.15;99753.53;5148666;27;20114;-70
2022/04/17 01:35:47;;;;;;;1.85;0.80;;;;;;;15.90;26.83;99750.19;5133997;27;20126;-68
2022/04/17 01:38:13;;;;;;;2.40;0.90;;;;;;;15.90;26.99;99756.34;5133677;27;20470;-69
2022/04/17 01:40:39;;;;;;;1.92;0.90;;;;;;;15.89;27.30;99759.16;5134190;27;20092;-69
2022/04/17 01:43:08;;;;;;;1.40;0.70;;;;;;;15.90;26.91;99758.19;5133780;27;20500;-69
2022/04/17 01:45:34;;;;;;;1.10;0.60;;;;;;;15.84;26.85;99760.41;5133685;27;20035;-68
2022/04/17 01:47:59;;;;;;;3.00;1.02;;;;;;;15.82;26.84;99764.25;5133357;27;20447;-69
2022/04/17 01:50:27;;;;;;;1.73;0.70;;;;;;;15.80;27.18;99758.22;5133585;27;20038;-68
2022/04/17 01:52:52;;;;;;;1.50;0.88;;;;;;;15.83;27.17;99764.06;5133237;28;20086;-69
2022/04/17 01:55:18;;;;;;;1.02;0.60;;;;;;;15.80;27.14;99760.88;5133986;28;20070;-69
2022/04/17 01:57:44;;;;;;;2.40;0.60;;;;;;;15.79;27.20;99749.38;5133319;27;20035;-67
2022/04/17 02:00:10;;;;;;;1.45;0.70;;;;;;;15.75;26.78;99752.47;5133240;28;20402;-68
2022/04/17 02:02:36;;;;;;;1.48;0.88;;;;;;;15.76;26.67;99759.47;5133240;27;20397;-69
2022/04/17 02:05:02;;;;;;;0.98;0.47;;;;;;;15.79;26.80;99745.84;5133177;27;20035;-68
2022/04/17 02:07:28;;;;;;;1.13;0.80;;;;;;;15.80;26.60;99753.72;5133252;28;20448;-67
2022/04/17 02:09:53;;;;;;;1.08;0.50;;;;;;;15.78;26.53;99757.50;5133587;28;20058;-67
2022/04/17 02:12:18;;;;;;;2.35;0.77;;;;;;;15.74;26.71;99751.66;5133272;27;20046;-68
2022/04/17 02:14:44;;;;;;;2.92;0.73;;;;;;;15.71;26.54;99739.44;5135248;27;20043;-68
2022/04/17 02:17:10;;;;;;;2.25;0.85;;;;;;;15.71;26.32;99746.59;5137351;27;20041;-69
2022/04/17 02:19:36;;;;;;;0.95;0.80;;;;;;;15.73;26.83;99749.97;5137656;27;20054;-68
2022/04/17 02:22:01;;;;;;;2.78;0.57;;;;;;;15.69;26.62;99737.91;5137437;27;20042;-69
2022/04/17 02:24:27;;;;;;;1.20;0.60;;;;;;;15.70;26.52;99734.25;5137368;27;20409;-68
2022/04/17 02:26:52;;;;;;;1.75;0.82;;;;;;;15.68;26.61;99738.88;5137544;27;20126;-69
2022/04/17 02:29:18;;;;;;;1.48;0.70;;;;;;;15.62;26.36;99737.66;5137051;27;20033;-69
2022/04/17 02:31:43;;;;;;;1.98;0.85;;;;;;;15.57;26.78;99740.78;5137389;27;20039;-69
2022/04/17 02:34:09;;;;;;;1.58;0.82;;;;;;;15.57;26.68;99743.44;5136802;27;20498;-69
2022/04/17 02:36:34;;;;;;;1.38;0.70;;;;;;;15.55;26.68;99750.75;5136973;27;20035;-69
2022/04/17 02:39:00;;;;;;;2.45;0.77;;;;;;;15.54;26.62;99749.06;5117988;27;20027;-70
2022/04/17 02:41:25;;;;;;;1.50;0.60;;;;;;;15.58;26.52;99752.31;5136972;27;20076;-69
2022/04/17 02:43:51;;;;;;;1.92;1.00;;;;;;;15.61;26.63;99751.16;5136958;27;20129;-68
2022/04/17 02:47:42;;;;;;;2.05;0.70;;;;;;;15.61;26.49;99743.97;5137231;27;20038;-68
2022/04/17 02:49:03;;;;;;;1.67;1.00;;;;;;;15.59;26.51;99750.47;5144241;27;20037;-68
2022/04/17 02:51:28;;;;;;;1.45;0.80;;;;;;;15.60;26.57;99752.97;5136749;27;20493;-69
2022/04/17 02:53:54;;;;;;;2.70;1.15;;;;;;;15.60;26.50;99747.63;5136536;27;20058;-69
2022/04/17 02:56:19;;;;;;;1.27;0.73;;;;;;;15.57;26.33;99748.78;5117720;27;20338;-68
2022/04/17 02:58:44;;;;;;;2.45;0.80;;;;;;;15.56;26.44;99746.28;5126274;27;20072;-68
2022/04/17 03:06:55;;;;;;;4.00;0.95;;;;;;;15.57;26.52;99751.44;5129774;27;20169;-70
2022/04/17 03:09:20;;;;;;;1.88;0.93;;;;;;;15.56;27.16;99740.94;5136162;27;20062;-68
2022/04/17 03:11:46;;;;;;;1.63;0.80;;;;;;;15.59;26.84;99750.47;5136716;27;20042;-69
2022/04/17 03:14:12;;;;;;;4.78;0.93;;;;;;;15.61;26.84;99759.16;5136118;27;20046;-69
2022/04/17 03:16:37;;;;;;;2.70;0.70;;;;;;;15.59;26.44;99761.94;5136264;27;20035;-69
2022/04/17 03:19:03;;;;;;;1.67;0.82;;;;;;;15.60;26.37;99762.81;5135776;27;20042;-69
2022/04/17 03:21:28;;;;;;;1.27;0.80;;;;;;;15.64;26.04;99773.03;5136304;27;20071;-68
2022/04/17 03:23:54;;;;;;;2.42;1.08;;;;;;;15.61;26.24;99764.50;5135687;27;20485;-68
2022/04/17 03:26:20;;;;;;;2.05;0.80;;;;;;;15.56;26.33;99763.09;5135852;27;20099;-68
2022/04/17 03:28:45;;;;;;;1.50;0.93;;;;;;;15.57;26.24;99777.28;5136117;27;20459;-69
2022/04/17 03:31:11;;;;;;;2.72;0.63;;;;;;;15.58;26.75;99776.31;5136340;27;20087;-68
2022/04/17 03:33:36;;;;;;;4.07;0.80;;;;;;;15.56;26.24;99779.09;5135901;27;20063;-68
2022/04/17 03:36:03;;;;;;;1.27;0.60;;;;;;;15.58;26.58;99778.97;5136248;27;20505;-68
2022/04/17 03:38:28;;;;;;;1.65;0.88;;;;;;;15.55;26.46;99785.41;5135567;27;20121;-69
2022/04/17 03:40:54;;;;;;;2.53;0.80;;;;;;;15.57;26.16;99782.63;5136462;27;20073;-69
2022/04/17 03:43:22;;;;;;;5.78;0.80;;;;;;;15.55;26.10;99787.25;5135849;27;20051;-67
2022/04/17 03:45:49;;;;;;;2.20;1.00;;;;;;;15.55;26.06;99784.59;5135648;27;20046;-67
2022/04/17 03:48:16;;;;;;;1.50;0.85;;;;;;;15.57;26.11;99780.78;5136072;27;20046;-68
2022/04/17 03:50:43;;;;;;;1.80;0.85;;;;;;;15.58;26.18;99781.63;5136577;27;20046;-67
2022/04/17 03:53:08;;;;;;;0.93;0.52;;;;;;;15.59;26.08;99793.13;5135484;27;20047;-69
2022/04/17 03:55:35;;;;;;;2.17;0.80;;;;;;;15.60;25.88;99789.47;5122699;27;20501;-68
2022/04/17 03:58:02;;;;;;;3.10;1.02;;;;;;;15.61;26.17;99791.16;5117137;27;20514;-66
2022/04/17 04:00:27;;;;;;;4.10;0.80;;;;;;;15.63;26.25;99798.03;5135429;27;20035;-67
2022/04/17 04:02:53;;;;;;;1.23;0.68;;;;;;;15.61;26.19;99800.00;5117244;27;20019;-69
2022/04/17 04:05:19;;;;;;;1.77;0.85;;;;;;;15.57;26.13;99791.44;5135692;27;20508;-68
2022/04/17 04:07:45;;;;;;;3.33;0.85;;;;;;;15.59;25.88;99804.63;5135465;27;20047;-70
2022/04/17 04:10:11;;;;;;;2.25;0.90;;;;;;;15.54;26.18;99796.25;5135599;27;20393;-68
2022/04/17 04:12:38;;;;;;;1.00;0.80;;;;;;;15.51;26.24;99808.03;5134928;27;20034;-68
2022/04/17 04:15:06;;;;;;;3.08;0.70;;;;;;;15.47;26.16;99805.81;5135429;27;20121;-68
2022/04/17 04:17:32;;;;;;;4.88;0.95;;;;;;;15.48;26.22;99808.34;5135134;27;20054;-69
2022/04/17 04:19:58;;;;;;;1.25;0.68;;;;;;;15.47;26.01;99811.13;5135106;27;20035;-67
2022/04/17 04:22:24;;;;;;;2.38;1.20;;;;;;;15.47;26.26;99813.81;5135512;27;20035;-68
2022/04/17 04:24:50;;;;;;;2.03;0.75;;;;;;;15.47;26.19;99808.47;5135243;27;20083;-69
2022/04/17 04:29:59;;;;;;;2.13;0.90;;;;;;;15.52;26.33;99807.03;5135299;27;20402;-68
2022/04/17 04:32:25;;;;;;;1.98;0.80;;;;;;;15.53;26.00;99814.06;5134754;27;20030;-69
2022/04/17 04:34:50;;;;;;;2.03;0.82;;;;;;;15.54;26.11;99810.41;5134481;27;20034;-68
2022/04/17 04:37:16;;;;;;;2.95;1.00;;;;;;;15.58;26.22;99821.66;5134140;27;20041;-68
2022/04/17 04:39:42;;;;;;;3.05;1.00;;;;;;;15.60;26.12;99822.31;5134975;27;20502;-68
2022/04/17 04:42:08;;;;;;;1.35;0.70;;;;;;;15.63;26.16;99823.88;5134876;27;20058;-68
2022/04/17 04:44:33;;;;;;;2.47;0.98;;;;;;;15.61;26.18;99824.00;5134558;27;20029;-70
2022/04/17 04:46:58;;;;;;;2.08;0.80;;;;;;;15.62;25.88;99822.19;5134305;27;20477;-68
2022/04/17 04:49:30;;;;;;;1.63;0.75;;;;;;;15.64;26.07;99830.88;5116006;27;20031;-69
2022/04/17 04:52:00;;;;;;;1.10;0.80;;;;;;;15.66;25.83;99827.06;5134651;27;20458;-67
2022/04/17 04:54:27;;;;;;;2.13;1.00;;;;;;;15.64;26.07;99839.72;5134593;27;20331;-68
2022/04/17 04:56:53;;;;;;;2.13;0.80;;;;;;;15.62;25.89;99830.19;5134280;27;20126;-68
2022/04/17 04:59:20;;;;;;;1.38;0.65;;;;;;;15.63;26.25;99816.69;5142051;27;20118;-69
2022/04/17 05:01:47;;;;;;;1.20;0.70;;;;;;;15.65;26.18;99832.56;5155167;27;20161;-67
2022/04/17 05:04:13;;;;;;;3.83;0.90;;;;;;;15.59;26.16;99817.97;5154902;27;20030;-69
2022/04/17 05:06:39;;;;;;;2.00;0.80;;;;;;;15.62;26.46;99824.84;5155441;27;20512;-68
2022/04/17 05:09:04;;;;;;;1.40;0.77;;;;;;;15.61;26.08;99828.50;5149536;27;20075;-67
2022/04/17 05:11:31;;;;;;;0.90;0.70;;;;;;;15.56;26.11;99826.28;5133978;27;20163;-69
2022/04/17 05:13:57;;;;;;;1.27;0.60;;;;;;;15.57;25.96;99823.47;5134164;27;20027;-68
2022/04/17 05:16:22;;;;;;;2.38;0.77;;;;;;;15.61;26.05;99825.84;5134284;27;20414;-68
2022/04/17 05:18:52;;;;;;;2.40;0.93;;;;;;;15.63;25.94;99821.19;5134025;27;20102;-66
2022/04/17 05:21:20;;;;;;;1.45;0.60;;;;;;;15.61;25.75;99825.84;5153908;27;20129;-68
2022/04/17 05:23:45;;;;;;;2.13;1.02;;;;;;;15.56;25.88;99818.28;5139012;27;20091;-69
2022/04/17 05:26:11;;;;;;;1.20;0.80;;;;;;;15.57;26.04;99806.63;5134073;27;20027;-67
2022/04/17 05:28:36;;;;;;;2.85;0.90;;;;;;;15.65;25.74;99809.38;5134086;27;20042;-68
2022/04/17 05:31:02;;;;;;;4.45;0.80;;;;;;;15.65;25.87;99814.72;5134206;27;20379;-68
2022/04/17 05:33:27;;;;;;;3.78;1.00;;;;;;;15.67;25.78;99823.41;5133740;27;20058;-70
2022/04/17 05:35:53;;;;;;;3.47;0.75;;;;;;;15.64;26.24;99833.56;5134158;27;20375;-68
2022/04/17 05:38:20;;;;;;;1.38;0.68;;;;;;;15.65;26.21;99830.72;5133599;27;20050;-69
2022/04/17 05:40:49;;;;;;;1.83;0.70;;;;;;;15.66;26.42;99842.25;5133919;27;20042;-68
2022/04/17 05:43:16;;;;;;;2.20;0.82;;;;;;;15.67;26.37;99849.25;5133743;27;20505;-69
2022/04/17 05:45:41;;;;;;;6.13;1.17;;;;;;;15.70;26.23;99843.63;5133997;27;20484;-68
2022/04/17 05:48:09;;;;;;;1.52;0.43;;;;;;;15.71;26.52;99853.31;5133315;27;20054;-69
2022/04/17 05:50:35;;;;;;;2.35;1.42;;;;;;;15.71;26.29;99843.50;5133640;27;20391;-68
2022/04/17 05:53:01;;;;;;;1.50;0.65;;;;;;;15.73;26.04;99840.66;5133643;27;20047;-69
2022/04/17 05:55:27;;;;;;;3.65;1.05;;;;;;;15.70;26.02;99843.63;5121659;27;20042;-69
2022/04/17 05:57:52;;;;;;;2.70;0.65;;;;;;;15.67;26.30;99839.44;5113057;28;20506;-69
2022/04/17 06:00:18;;;;;;;1.83;0.82;;;;;;;15.71;25.95;99845.31;5113169;28;20031;-69
2022/04/17 06:02:47;;;;;;;1.63;0.80;;;;;;;15.75;26.03;99846.69;5113631;28;20492;-70
2022/04/17 06:05:13;;;;;;;0.98;0.75;;;;;;;15.77;25.82;99844.72;5134420;27;20035;-70
2022/04/17 06:07:40;;;;;;;3.22;0.80;;;;;;;15.77;26.05;99842.06;5149539;27;20513;-69
2022/04/17 06:10:08;;;;;;;2.65;0.93;;;;;;;15.77;26.04;99843.88;5133725;27;20383;-69
2022/04/17 06:12:34;;;;;;;3.33;0.82;;;;;;;15.75;26.25;99852.03;5133371;28;20410;-70
2022/04/17 06:14:59;;;;;;;2.75;1.02;;;;;;;15.75;26.37;99852.03;5133474;28;20057;-69
2022/04/17 06:17:25;;;;;;;2.55;0.55;;;;;;;15.81;26.23;99862.09;5133180;28;20031;-68
2022/04/17 06:19:50;;;;;;;1.85;0.80;;;;;;;15.86;26.30;99851.03;5132800;27;20033;-70
2022/04/17 06:22:17;;;;;;;1.70;0.80;;;;;;;15.94;26.17;99855.63;5133022;27;20451;-68
2022/04/17 06:24:43;;;;;;;2.63;0.68;;;;;;;16.00;26.05;99860.38;5133149;28;20031;-70
2022/04/17 06:27:09;;;;;;;2.20;0.90;;;;;;;16.03;26.14;99860.09;5133043;27;20072;-69
2022/04/17 06:29:35;;;;;;;1.55;0.93;;;;;;;16.07;26.23;99872.16;5133357;27;20031;-67
2022/04/17 06:32:00;;;;;;;0.65;0.50;;;;;;;16.09;26.26;99874.66;5133075;28;20030;-67
2022/04/17 06:34:26;;;;;;;1.75;0.75;;;;;;;16.09;26.09;99863.97;5133191;28;20023;-68
2022/04/17 06:36:51;;;;;;;2.65;0.95;;;;;;;16.07;26.29;99872.16;5133089;28;20049;-69
2022/04/17 06:39:17;;;;;;;2.20;1.00;;;;;;;16.10;25.86;99871.81;5133558;27;20393;-68
2022/04/17 06:41:44;;;;;;;2.63;0.73;;;;;;;16.07;25.98;99874.81;5133485;27;20031;-68
2022/04/17 06:44:11;;;;;;;1.48;0.77;;;;;;;16.07;26.09;99866.81;5132589;27;20075;-68
2022/04/17 06:46:38;;;;;;;4.93;0.90;;;;;;;16.10;25.85;99868.34;5132877;28;20050;-68
2022/04/17 06:49:03;;;;;;;1.88;0.75;;;;;;;16.12;26.12;99861.84;5132916;27;20027;-68
2022/04/17 06:51:29;;;;;;;2.35;0.73;;;;;;;16.13;25.97;99863.53;5132906;27;20091;-68
2022/04/17 06:53:54;;;;;;;6.15;0.80;;;;;;;16.14;26.23;99851.88;5132771;27;20382;-68
2022/04/17 06:56:20;;;;;;;2.00;0.50;;;;;;;16.19;26.21;99858.59;5137446;27;20065;-68
2022/04/17 06:58:46;;;;;;;6.28;1.20;;;;;;;16.19;26.05;99863.94;5143129;27;20035;-68
2022/04/17 07:01:14;;;;;;;1.20;0.60;;;;;;;16.18;25.78;99873.75;5135088;27;20023;-67
2022/04/17 07:03:43;;;;;;;1.08;0.50;;;;;;;16.22;25.66;99875.13;5136421;27;20034;-68
2022/04/17 07:06:08;;;;;;;1.63;0.65;;;;;;;16.16;25.72;99865.06;5136560;27;20038;-67
2022/04/17 07:08:34;;;;;;;8.13;1.20;;;;;;;16.15;26.17;99872.22;5136483;27;20027;-68
2022/04/17 07:11:00;;;;;;;3.35;0.80;;;;;;;16.19;26.06;99874.59;5138057;27;20035;-69
2022/04/17 07:13:26;;;;;;;3.08;1.00;;;;;;;16.22;26.21;99879.66;5136539;27;20031;-68
2022/04/17 07:15:51;;;;;;;1.48;0.60;;;;;;;16.24;26.28;99878.50;5136250;27;20027;-69
2022/04/17 07:18:17;;;;;;;4.45;0.93;;;;;;;16.25;26.02;99874.03;5136702;27;20031;-69
2022/04/17 07:20:42;;;;;;;3.45;0.80;;;;;;;16.26;25.96;99870.34;5136022;27;20118;-68
2022/04/17 07:23:08;;;;;;;1.38;0.73;;;;;;;16.24;25.66;99865.16;5136488;27;20061;-69
2022/04/17 07:25:34;;;;;;;5.35;0.90;;;;;;;16.27;25.68;99867.53;5136445;27;20084;-69
2022/04/17 07:28:00;;;;;;;3.45;0.88;;;;;;;16.30;25.54;99871.72;5135827;27;20031;-67
2022/04/17 07:30:27;;;;;;;1.67;0.85;;;;;;;16.30;25.81;99874.41;5136175;27;20037;-68
2022/04/17 07:32:55;;;;;;;1.42;0.80;;;;;;;16.27;25.88;99866.69;5135703;27;20069;-69
2022/04/17 07:35:22;;;;;;;4.03;0.70;;;;;;;16.27;25.45;99874.69;5135740;27;20069;-70
2022/04/17 07:37:49;;;;;;;1.63;0.80;;;;;;;16.30;25.34;99885.06;5135888;27;20443;-68
2022/04/17 07:40:21;;;;;;;1.08;0.75;;;;;;;16.32;25.46;99888.44;5135700;27;20031;-69
2022/04/17 07:42:50;;;;;;;1.67;0.50;;;;;;;16.35;25.16;99882.81;5135620;27;20105;-69
2022/04/17 07:45:17;;;;;;;2.20;0.80;;;;;;;16.33;25.11;99893.63;5135812;27;20037;-66
2022/04/17 07:47:44;;;;;;;1.80;0.70;;;;;;;16.34;25.10;99889.13;5136013;27;20050;-68
2022/04/17 07:50:15;;;;;;;3.58;1.00;;;;;;;16.37;25.36;99886.16;5135562;27;20494;-69
2022/04/17 07:52:41;;;;;;;;;;;;;;;16.31;25.56;99900.09;5135756;27;20058;-68
2022/04/17 07:55:08;;;;;;;8.65;1.00;;;;;;;16.30;25.27;99877.94;5135483;27;19915;-68
2022/04/17 07:57:56;;;;;;;2.63;0.80;;;;;;;16.36;25.22;99891.66;5135581;27;20486;-68
2022/04/17 08:00:22;;;;;;;1.00;0.70;;;;;;;16.35;25.00;99885.47;5135631;27;20043;-69
2022/04/17 08:02:59;;;;;;;3.97;1.08;;;;;;;16.37;25.10;99891.50;5135202;27;20042;-68
2022/04/17 08:05:25;;;;;;;4.90;0.85;;;;;;;16.45;25.22;99894.25;5135146;27;20486;-68
2022/04/17 08:07:51;;;;;;;2.38;0.63;;;;;;;16.52;25.08;99899.84;5135113;27;20030;-67
2022/04/17 08:10:17;;;;;;;0.93;0.57;;;;;;;16.54;24.98;99895.19;5135101;27;20041;-70
2022/04/17 08:12:43;;;;;;;1.75;0.85;;;;;;;16.56;25.27;99903.91;5134864;27;20062;-68
2022/04/17 08:15:09;;;;;;;4.10;0.77;;;;;;;16.52;25.31;99905.19;5135646;27;20107;-68
2022/04/17 08:17:35;;;;;;;2.20;0.80;;;;;;;16.52;25.16;99909.69;5135254;27;20178;-67
2022/04/17 08:20:01;;;;;;;1.70;0.77;;;;;;;16.53;25.09;99906.03;5135316;27;20601;-70
2022/04/17 08:22:26;;;;;;;2.08;0.77;;;;;;;16.52;25.32;99917.72;5134967;27;20023;-69
2022/04/17 08:24:51;;;;;;;3.00;0.68;;;;;;;16.49;25.36;99916.16;5135095;27;20042;-68
2022/04/17 08:27:17;;;;;;;5.20;1.08;;;;;;;16.46;25.13;99919.97;5135340;27;20114;-69
2022/04/17 08:29:42;;;;;;;2.25;0.93;;;;;;;16.47;25.03;99902.97;5134851;27;20042;-68
2022/04/17 08:32:09;;;;;;;1.58;0.80;;;;;;;16.48;25.05;99923.34;5135000;27;20108;-67
2022/04/17 08:34:34;;;;;;;2.92;0.80;;;;;;;16.46;25.56;99919.97;5134494;27;20035;-67
2022/04/17 08:37:00;;;;;;;4.22;0.70;;;;;;;16.49;25.07;99916.16;5134808;27;20031;-67
2022/04/17 08:39:26;;;;;;;3.33;0.65;;;;;;;16.50;25.64;99915.16;5134479;27;20035;-65
2022/04/17 08:41:54;;;;;;;2.08;0.70;;;;;;;16.55;25.26;99917.38;5134494;27;20031;-67
2022/04/17 08:44:21;;;;;;;1.52;0.70;;;;;;;16.58;25.75;99914.41;5134481;27;20490;-65
2022/04/17 08:46:47;;;;;;;2.83;0.80;;;;;;;16.60;25.20;99912.44;5134794;27;20099;-67
2022/04/17 08:49:13;;;;;;;3.83;0.95;;;;;;;16.63;25.40;99910.31;5133946;27;20030;-67
2022/04/17 08:51:39;;;;;;;1.70;0.68;;;;;;;16.68;25.17;99925.06;5134710;27;20087;-66
2022/04/17 08:54:07;;;;;;;1.33;0.50;;;;;;;16.71;24.76;99917.56;5133906;27;20200;-67
2022/04/17 08:56:34;;;;;;;2.50;0.77;;;;;;;16.72;24.75;99897.03;5134677;27;20034;-65
2022/04/17 08:59:00;;;;;;;1.77;0.80;;;;;;;16.77;24.82;99905.41;5133857;27;20098;-66
2022/04/17 09:01:26;;;;;;;3.10;0.80;;;;;;;16.78;25.17;99905.28;5134492;27;20489;-64
2022/04/17 09:03:51;;;;;;;2.83;0.70;;;;;;;16.76;25.17;99901.94;5134119;27;20071;-65
2022/04/17 09:06:21;;;;;;;1.25;0.50;;;;;;;16.81;24.59;99917.50;5134155;27;20027;-67
2022/04/17 09:09:00;;;;;;;2.00;0.60;;;;;;;16.85;24.77;99915.34;5134155;27;20035;-69
2022/04/17 09:11:28;;;;;;;1.95;0.77;;;;;;;16.88;24.72;99905.22;5133964;27;20064;-69
2022/04/17 09:13:57;;;;;;;2.40;0.68;;;;;;;16.92;24.67;99919.09;5133361;27;20038;-66
2022/04/17 09:16:26;;;;;;;2.45;1.05;;;;;;;16.95;24.46;99907.28;5134234;27;20110;-68
2022/04/17 09:18:51;;;;;;;1.80;0.70;;;;;;;16.97;24.43;99924.03;5133824;27;20043;-67
2022/04/17 09:21:32;;;;;;;1.52;0.70;;;;;;;16.97;24.58;99918.69;5134249;27;20027;-66
2022/04/17 09:24:18;;;;;;;1.77;1.02;;;;;;;16.92;24.78;99927.13;5132827;27;20482;-68
2022/04/17 09:27:03;;;;;;;3.17;0.85;;;;;;;16.88;24.59;99923.06;5149707;27;20039;-69
2022/04/17 09:29:37;;;;;;;1.38;0.90;;;;;;;16.90;25.01;99915.75;5133683;27;20031;-69
2022/04/17 09:32:07;;;;;;;2.72;0.70;;;;;;;16.91;25.18;99922.78;5134028;27;20047;-66
2022/04/17 09:34:50;;;;;;;2.05;0.90;;;;;;;16.90;24.56;99919.28;5133050;27;20042;-66
2022/04/17 09:37:35;;;;;;;3.70;0.82;;;;;;;16.92;24.59;99924.47;5133804;27;20107;-66
2022/04/17 09:40:08;;;;;;;1.27;0.65;;;;;;;16.93;25.11;99931.47;5133903;27;20055;-66
2022/04/17 09:42:33;;;;;;;2.25;1.05;;;;;;;16.93;24.93;99934.97;5133510;27;20035;-66
2022/04/17 09:45:00;;;;;;;3.00;1.05;;;;;;;16.95;24.82;99942.03;5133370;27;20092;-67
2022/04/17 09:47:29;;;;;;;1.35;0.70;;;;;;;16.95;25.21;99945.56;5133127;27;20114;-68
2022/04/17 09:49:57;;;;;;;1.20;0.73;;;;;;;16.96;25.22;99947.25;5112881;28;20062;-66
2022/04/17 09:52:29;;;;;;;1.23;0.70;;;;;;;16.97;24.75;99935.56;5112860;28;20116;-66
2022/04/17 09:54:55;;;;;;;1.67;1.13;;;;;;;17.00;24.64;99948.59;5119988;28;20494;-67
2022/04/17 09:57:34;;;;;;;2.50;0.70;;;;;;;17.02;24.39;99940.44;5133815;27;20080;-69
2022/04/17 10:00:15;;;;;;;2.55;0.85;;;;;;;17.02;24.82;99935.94;5133344;27;20035;-67
2022/04/17 10:02:45;;;;;;;4.68;1.10;;;;;;;17.01;24.74;99936.91;5132147;27;20521;-66
2022/04/17 10:05:13;;;;;;;2.45;1.10;;;;;;;17.02;24.80;99938.59;5133437;27;20039;-66
2022/04/17 10:07:41;;;;;;;7.68;0.80;;;;;;;16.99;24.84;99933.56;5133534;28;20453;-67
2022/04/17 10:10:07;;;;;;;5.90;1.35;;;;;;;16.98;24.85;99934.59;5133382;28;20035;-67
2022/04/17 10:12:36;;;;;;;2.35;0.80;;;;;;;16.98;25.08;99942.59;5133508;27;20027;-69
2022/04/17 10:15:06;;;;;;;3.03;1.20;;;;;;;16.93;24.98;99944.84;5133221;27;20058;-68
2022/04/17 10:17:42;;;;;;;3.60;0.80;;;;;;;16.94;25.12;99941.19;5133086;27;20118;-67
2022/04/17 10:20:12;;;;;;;1.85;1.08;;;;;;;16.97;25.21;99958.78;5132574;27;20137;-66
2022/04/17 10:22:40;;;;;;;9.37;1.47;;;;;;;16.98;24.85;99955.97;5133233;27;20524;-68
2022/04/17 10:25:10;;;;;;;6.00;2.35;;;;;;;17.03;25.20;99947.47;5133215;27;20035;-67
2022/04/17 10:27:35;;;;;;;17.80;8.80;;;;;;;17.06;25.46;99963.19;5134400;27;20493;-69
2022/04/17 10:30:12;;;;;;;26.48;11.88;;;;;;;17.08;25.57;99959.41;5132951;27;20119;-69
2022/04/17 10:32:47;;;;;;;11.30;4.68;;;;;;;17.12;25.32;99969.78;5133185;28;20030;-66
2022/04/17 10:35:34;;;;;;;37.85;15.88;;;;;;;17.16;25.88;99955.94;5113318;28;20047;-67
2022/04/17 10:38:18;;;;;;;28.67;11.55;;;;;;;17.14;25.80;99965.97;5116664;28;20093;-68
2022/04/17 10:41:08;;;;;;;14.75;6.18;;;;;;;17.13;26.07;99942.06;5126183;27;20033;-65
2022/04/17 10:43:57;;;;;;;19.10;8.00;;;;;;;17.18;25.94;99961.13;5130310;27;20031;-68
2022/04/17 10:46:24;;;;;;;14.85;5.32;;;;;;;17.21;25.48;99966.19;5137268;27;20027;-65
2022/04/17 10:49:05;;;;;;;27.88;12.15;;;;;;;17.27;25.93;99960.22;5136858;27;20413;-66
2022/04/17 10:51:35;;;;;;;31.52;13.48;;;;;;;17.25;26.27;99954.19;5136639;27;20628;-70
2022/04/17 10:54:13;;;;;;;21.80;7.70;;;;;;;17.25;26.43;99951.53;5141039;27;20043;-66
2022/04/17 10:57:00;;;;;;;20.27;7.60;;;;;;;17.28;26.46;99955.72;5136381;27;20501;-67
2022/04/17 10:59:29;;;;;;;10.35;5.55;;;;;;;17.28;26.41;99953.03;5117941;27;20168;-67
2022/04/17 11:02:17;;;;;;;15.95;6.60;;;;;;;17.28;26.33;99945.84;5136700;27;20114;-68
2022/04/17 11:04:58;;;;;;;16.65;4.47;;;;;;;17.26;26.26;99942.50;5131113;27;20607;-70
2022/04/17 11:07:29;;;;;;;20.48;6.65;;;;;;;17.24;26.26;99934.63;5136216;27;20039;-66
2022/04/17 11:10:19;;;;;;;15.57;5.15;;;;;;;17.29;26.59;99942.16;5136559;27;20035;-67
2022/04/17 11:12:55;;;;;;;15.95;7.57;;;;;;;17.30;26.88;99930.47;5136319;27;20038;-68
2022/04/17 11:15:23;;;;;;;11.38;4.57;;;;;;;17.27;26.56;99933.50;5136556;27;20039;-69
2022/04/17 11:17:50;;;;;;;12.65;6.07;;;;;;;17.22;26.54;99931.25;5136554;27;20058;-67
2022/04/17 11:20:15;;;;;;;11.48;5.25;;;;;;;17.21;26.94;99924.22;5136150;27;20030;-67
2022/04/17 11:22:41;;;;;;;12.00;5.03;;;;;;;17.24;26.61;99926.59;5136366;27;20034;-68
2022/04/17 11:25:12;;;;;;;12.82;5.82;;;;;;;17.28;26.87;99932.47;5136460;27;20486;-68
2022/04/17 11:27:42;;;;;;;11.02;4.82;;;;;;;17.28;26.79;99929.78;5135947;27;20027;-68
2022/04/17 11:30:27;;;;;;;10.73;4.60;;;;;;;17.34;26.62;99931.88;5136262;27;20397;-66
2022/04/17 11:32:54;;;;;;;16.15;6.15;;;;;;;17.37;27.08;99928.03;5135052;27;20034;-67
2022/04/17 11:35:24;;;;;;;14.88;5.85;;;;;;;17.42;27.22;99932.94;5136178;27;20031;-67
2022/04/17 11:37:51;;;;;;;10.90;4.38;;;;;;;17.46;27.16;99939.63;5135509;27;20122;-67
2022/04/17 11:40:19;;;;;;;10.05;5.43;;;;;;;17.47;27.06;99935.97;5135748;27;20035;-68
2022/04/17 11:42:50;;;;;;;17.75;7.03;;;;;;;17.47;27.74;99928.78;5135682;27;20035;-67
2022/04/17 11:45:21;;;;;;;16.05;6.18;;;;;;;17.47;27.69;99930.59;5135923;27;20026;-66
2022/04/17 11:47:47;;;;;;;16.50;7.15;;;;;;;17.46;27.95;99943.16;5135166;27;20027;-67